createdAt,value
2018-04-28T00:00:00.759Z,14.58
2018-04-28T00:02:29.142Z,14.48
2018-04-28T00:04:57.562Z,14.49
2018-04-28T00:07:26.696Z,14.51
2018-04-28T00:09:55.091Z,14.45
2018-04-28T00:12:23.823Z,14.41
2018-04-28T00:14:52.928Z,14.32
2018-04-28T00:17:22.075Z,14.33
2018-04-28T00:19:54.948Z,14.36
2018-04-28T00:22:24.104Z,14.37
2018-04-28T00:24:57.190Z,14.30
2018-04-28T00:27:27.202Z,14.30
2018-04-28T00:33:03.281Z,14.49
2018-04-28T00:35:33.144Z,14.57
2018-04-28T00:38:01.505Z,14.54
2018-04-28T00:40:46.420Z,14.61
2018-04-28T00:43:15.458Z,14.51
2018-04-28T00:45:50.978Z,14.45
2018-04-28T00:51:37.476Z,14.30
2018-04-28T00:57:55.369Z,14.18
2018-04-28T01:00:42.084Z,14.14
2018-04-28T01:03:10.764Z,14.17
2018-04-28T01:05:48.250Z,14.16
2018-04-28T01:08:32.205Z,14.10
2018-04-28T01:11:02.368Z,14.25
2018-04-28T01:13:47.530Z,14.29
2018-04-28T01:16:17.339Z,14.19
2018-04-28T01:21:45.174Z,14.09
2018-04-28T01:24:19.835Z,14.21
2018-04-28T01:30:04.371Z,14.04
2018-04-28T01:39:24.562Z,13.98
2018-04-28T01:41:59.357Z,13.86
2018-04-28T01:47:25.773Z,14.01
2018-04-28T01:50:13.370Z,14.02
2018-04-28T01:52:42.750Z,13.97
2018-04-28T01:58:21.807Z,13.97
2018-04-28T02:04:14.460Z,14.18
2018-04-28T02:07:00.506Z,14.04
2018-04-28T02:09:30.074Z,14.00
2018-04-28T02:15:01.584Z,14.09
2018-04-28T02:20:59.863Z,14.01
2018-04-28T02:23:35.544Z,13.72
2018-04-28T02:26:21.635Z,13.69
2018-04-28T02:29:02.324Z,13.72
2018-04-28T02:31:43.232Z,13.52
2018-04-28T02:37:41.467Z,13.45
2018-04-28T02:40:23.959Z,13.56
2018-04-28T02:42:53.515Z,13.45
2018-04-28T02:45:42.298Z,13.41
2018-04-28T02:48:14.365Z,13.45
2018-04-28T02:50:49.319Z,13.39
2018-04-28T02:53:24.580Z,13.48
2018-04-28T02:56:15.677Z,13.56
2018-04-28T02:58:57.280Z,13.61
2018-04-28T03:04:32.314Z,13.60
2018-04-28T03:10:12.758Z,13.67
2018-04-28T03:12:41.100Z,13.50
2018-04-28T03:15:09.452Z,13.27
2018-04-28T03:17:42.451Z,13.26
2018-04-28T03:20:16.240Z,13.29
2018-04-28T03:22:50.091Z,13.25
2018-04-28T03:25:30.732Z,13.39
2018-04-28T03:28:39.985Z,13.39
2018-04-28T03:31:34.503Z,13.14
2018-04-28T03:37:26.293Z,13.40
2018-04-28T03:43:03.411Z,13.33
2018-04-28T03:45:37.021Z,13.20
2018-04-28T03:48:16.289Z,13.12
2018-04-28T03:50:49.131Z,13.17
2018-04-28T03:53:20.861Z,13.32
2018-04-28T03:55:49.240Z,13.27
2018-04-28T03:58:35.300Z,13.32
2018-04-28T04:01:22.298Z,13.32
2018-04-28T04:04:02.919Z,13.14
2018-04-28T04:09:39.813Z,12.96
2018-04-28T04:15:25.555Z,12.94
2018-04-28T04:21:23.344Z,12.68
2018-04-28T04:24:07.939Z,12.82
2018-04-28T04:26:44.604Z,12.71
2018-04-28T04:29:29.527Z,12.58
2018-04-28T04:32:01.585Z,12.62
2018-04-28T04:41:03.180Z,12.92
2018-04-28T04:47:16.829Z,13.01
2018-04-28T04:49:55.569Z,13.08
2018-04-28T04:55:57.305Z,13.17
2018-04-28T05:01:36.888Z,13.44
2018-04-28T05:04:19.846Z,13.31
2018-04-28T05:10:14.817Z,13.08
2018-04-28T05:12:59.559Z,13.18
2018-04-28T05:15:37.051Z,13.51
2018-04-28T05:21:32.500Z,13.78
2018-04-28T05:24:18.687Z,13.96
2018-04-28T05:27:09.147Z,14.23
2018-04-28T05:33:01.141Z,14.28
2018-04-28T05:39:16.147Z,13.92
2018-04-28T05:41:56.243Z,14.04
2018-04-28T05:47:46.106Z,14.88
2018-04-28T05:50:28.848Z,14.71
2018-04-28T05:53:13.815Z,14.87
2018-04-28T05:56:05.766Z,15.09
2018-04-28T06:02:18.772Z,15.30
2018-04-28T06:05:04.815Z,15.31
2018-04-28T06:07:41.414Z,15.23
2018-04-28T06:13:43.970Z,15.29
2018-04-28T06:22:47.348Z,15.29
2018-04-28T06:25:16.427Z,15.41
2018-04-28T06:27:45.576Z,15.80
2018-04-28T06:30:14.571Z,16.15
2018-04-28T06:32:42.948Z,16.16
2018-04-28T06:35:11.311Z,16.04
2018-04-28T06:37:39.703Z,16.20
2018-04-28T06:40:08.030Z,16.48
2018-04-28T06:42:36.353Z,16.66
2018-04-28T06:45:04.737Z,16.87
2018-04-28T06:47:33.099Z,16.84
2018-04-28T06:50:01.473Z,17.29
2018-04-28T06:52:31.075Z,17.25
2018-04-28T06:55:00.176Z,16.92
2018-04-28T06:57:28.565Z,17.04
2018-04-28T06:59:57.688Z,17.37
2018-04-28T07:02:26.233Z,17.22
2018-04-28T07:04:54.655Z,17.37
2018-04-28T07:07:23.032Z,17.35
2018-04-28T07:09:51.344Z,17.36
2018-04-28T07:12:20.462Z,17.91
2018-04-28T07:14:50.071Z,17.73
2018-04-28T07:17:18.385Z,17.73
2018-04-28T07:19:46.784Z,17.65
2018-04-28T07:22:15.256Z,17.64
2018-04-28T07:24:43.640Z,16.93
2018-04-28T07:27:11.971Z,17.10
2018-04-28T07:29:41.105Z,17.55
2018-04-28T07:32:09.417Z,17.59
2018-04-28T07:34:37.756Z,18.10
2018-04-28T07:37:06.178Z,18.59
2018-04-28T07:39:34.572Z,18.76
2018-04-28T07:42:02.939Z,19.22
2018-04-28T07:44:31.301Z,19.28
2018-04-28T07:46:59.628Z,19.06
2018-04-28T07:49:28.713Z,19.71
2018-04-28T07:51:57.819Z,19.39
2018-04-28T07:54:26.908Z,19.68
2018-04-28T07:56:56.080Z,20.11
2018-04-28T07:59:24.666Z,20.39
2018-04-28T08:01:53.051Z,20.53
2018-04-28T08:04:22.188Z,20.31
2018-04-28T08:06:50.584Z,20.55
2018-04-28T08:09:18.942Z,20.21
2018-04-28T08:11:47.308Z,20.04
2018-04-28T08:14:16.463Z,20.02
2018-04-28T08:16:44.803Z,20.84
2018-04-28T08:19:13.145Z,20.95
2018-04-28T08:21:41.759Z,20.52
2018-04-28T08:24:10.100Z,20.68
2018-04-28T08:26:38.508Z,20.49
2018-04-28T08:29:06.870Z,20.67
2018-04-28T08:31:36.085Z,21.20
2018-04-28T08:34:04.417Z,21.01
2018-04-28T08:36:32.749Z,21.26
2018-04-28T08:39:01.832Z,21.61
2018-04-28T08:41:30.925Z,21.87
2018-04-28T08:43:59.675Z,22.01
2018-04-28T08:46:27.986Z,22.04
2018-04-28T08:48:56.315Z,22.53
2018-04-28T08:51:24.712Z,22.93
2018-04-28T08:53:53.055Z,23.01
2018-04-28T08:56:21.403Z,23.31
2018-04-28T08:58:49.770Z,23.35
2018-04-28T09:01:18.122Z,23.49
2018-04-28T09:03:46.546Z,23.29
2018-04-28T09:06:15.419Z,23.68
2018-04-28T09:08:43.731Z,23.64
2018-04-28T09:11:12.067Z,23.72
2018-04-28T09:13:40.440Z,23.80
2018-04-28T09:16:08.783Z,23.32
2018-04-28T09:18:37.131Z,22.52
2018-04-28T09:21:06.299Z,23.30
2018-04-28T09:23:34.651Z,23.85
2018-04-28T09:26:03.071Z,24.21
2018-04-28T09:28:31.996Z,24.33
2018-04-28T09:31:00.369Z,24.88
2018-04-28T09:33:29.479Z,24.34
2018-04-28T09:35:57.844Z,24.41
2018-04-28T09:38:26.943Z,24.49
2018-04-28T09:40:55.296Z,24.01
2018-04-28T09:43:23.660Z,23.50
2018-04-28T09:45:52.042Z,23.89
2018-04-28T09:48:20.559Z,24.18
2018-04-28T09:50:49.081Z,24.74
2018-04-28T09:53:17.426Z,25.57
2018-04-28T09:55:45.803Z,25.47
2018-04-28T09:58:14.944Z,25.84
2018-04-28T10:00:57.882Z,25.88
2018-04-28T10:03:31.280Z,25.85
2018-04-28T10:05:59.788Z,25.98
2018-04-28T10:08:29.305Z,25.73
2018-04-28T10:10:57.866Z,25.89
2018-04-28T10:13:26.984Z,26.03
2018-04-28T10:15:55.340Z,26.05
2018-04-28T10:18:24.498Z,26.17
2018-04-28T10:20:52.838Z,26.29
2018-04-28T10:23:21.966Z,26.54
2018-04-28T10:25:50.311Z,26.39
2018-04-28T10:28:19.413Z,26.98
2018-04-28T10:30:48.567Z,26.48
2018-04-28T10:33:17.233Z,26.62
2018-04-28T10:35:45.606Z,26.47
2018-04-28T10:38:13.924Z,26.19
2018-04-28T10:40:42.286Z,25.38
2018-04-28T10:43:10.730Z,24.64
2018-04-28T10:45:39.055Z,25.02
2018-04-28T10:48:07.437Z,25.85
2018-04-28T10:50:35.776Z,26.31
2018-04-28T10:53:04.120Z,26.80
2018-04-28T10:55:33.523Z,26.31
2018-04-28T10:58:02.648Z,25.59
2018-04-28T11:00:31.024Z,25.65
2018-04-28T11:02:59.419Z,26.15
2018-04-28T11:05:27.777Z,26.18
2018-04-28T11:07:56.100Z,26.52
2018-04-28T11:10:24.761Z,25.64
2018-04-28T11:12:53.148Z,26.06
2018-04-28T11:15:21.507Z,26.52
2018-04-28T11:17:50.098Z,26.87
2018-04-28T11:20:18.511Z,26.20
2018-04-28T11:22:47.673Z,26.51
2018-04-28T11:25:16.100Z,26.72
2018-04-28T11:27:44.471Z,26.41
2018-04-28T11:30:12.830Z,25.33
2018-04-28T11:32:41.210Z,24.44
2018-04-28T11:35:09.588Z,23.42
2018-04-28T11:37:39.642Z,23.66
2018-04-28T11:40:08.984Z,23.21
2018-04-28T11:42:37.350Z,22.65
2018-04-28T11:45:06.516Z,22.79
2018-04-28T11:47:34.928Z,22.83
2018-04-28T11:50:03.307Z,23.38
2018-04-28T11:52:31.792Z,23.53
2018-04-28T11:55:00.238Z,22.95
2018-04-28T11:57:28.645Z,22.47
2018-04-28T11:59:57.770Z,22.70
2018-04-28T12:02:26.332Z,23.05
2018-04-28T12:04:54.705Z,23.25
2018-04-28T12:07:23.806Z,22.74
2018-04-28T12:09:52.167Z,23.01
2018-04-28T12:12:20.606Z,22.83
2018-04-28T12:14:48.959Z,22.40
2018-04-28T12:17:17.366Z,23.01
2018-04-28T12:19:45.719Z,23.40
2018-04-28T12:22:14.067Z,23.87
2018-04-28T12:24:43.880Z,24.08
2018-04-28T12:27:12.283Z,23.76
2018-04-28T12:29:41.493Z,24.21
2018-04-28T12:32:10.624Z,24.64
2018-04-28T12:34:38.985Z,24.61
2018-04-28T12:37:07.347Z,24.61
2018-04-28T12:39:35.747Z,25.20
2018-04-28T12:42:04.096Z,25.22
2018-04-28T12:44:32.446Z,25.23
2018-04-28T12:47:01.251Z,25.44
2018-04-28T12:49:29.635Z,24.93
2018-04-28T12:51:57.995Z,24.81
2018-04-28T12:54:26.380Z,23.81
2018-04-28T12:56:55.501Z,23.42
2018-04-28T12:59:23.854Z,23.89
2018-04-28T13:01:52.271Z,23.99
2018-04-28T13:04:20.641Z,23.08
2018-04-28T13:06:49.005Z,22.51
2018-04-28T13:09:17.784Z,22.56
2018-04-28T13:11:46.222Z,22.86
2018-04-28T13:14:14.566Z,22.67
2018-04-28T13:16:42.946Z,23.15
2018-04-28T13:19:11.297Z,22.92
2018-04-28T13:21:39.627Z,23.42
2018-04-28T13:24:07.988Z,23.15
2018-04-28T13:26:36.308Z,23.06
2018-04-28T13:29:04.680Z,23.08
2018-04-28T13:31:33.525Z,23.58
2018-04-28T13:34:02.644Z,23.44
2018-04-28T13:36:30.982Z,23.48
2018-04-28T13:39:00.113Z,22.40
2018-04-28T13:41:28.510Z,22.04
2018-04-28T13:43:56.865Z,22.04
2018-04-28T13:46:25.220Z,21.85
2018-04-28T13:48:54.320Z,21.97
2018-04-28T13:51:22.686Z,22.28
2018-04-28T13:53:51.204Z,22.98
2018-04-28T13:56:19.607Z,23.41
2018-04-28T13:58:48.010Z,23.19
2018-04-28T14:01:16.398Z,22.39
2018-04-28T14:03:45.518Z,22.09
2018-04-28T14:06:14.608Z,22.19
2018-04-28T14:08:43.772Z,22.42
2018-04-28T14:11:12.157Z,22.26
2018-04-28T14:13:40.493Z,22.15
2018-04-28T14:16:09.119Z,22.25
2018-04-28T14:18:37.455Z,22.60
2018-04-28T14:21:05.843Z,23.06
2018-04-28T14:23:34.181Z,23.03
2018-04-28T14:26:03.289Z,22.75
2018-04-28T14:28:31.646Z,23.21
2018-04-28T14:31:00.017Z,23.25
2018-04-28T14:33:28.345Z,23.30
2018-04-28T14:35:56.663Z,23.38
2018-04-28T14:38:25.287Z,23.52
2018-04-28T14:40:54.409Z,23.89
2018-04-28T14:43:22.752Z,24.32
2018-04-28T14:45:51.131Z,24.00
2018-04-28T14:48:19.487Z,24.15
2018-04-28T14:50:47.825Z,24.03
2018-04-28T14:53:16.254Z,24.06
2018-04-28T14:55:44.576Z,23.91
2018-04-28T14:58:12.928Z,24.05
2018-04-28T15:00:42.233Z,24.15
2018-04-28T15:03:11.340Z,23.78
2018-04-28T15:05:40.507Z,22.76
2018-04-28T15:08:08.915Z,22.54
2018-04-28T15:10:38.018Z,22.64
2018-04-28T15:13:06.376Z,22.54
2018-04-28T15:15:34.732Z,22.65
2018-04-28T15:18:03.115Z,22.82
2018-04-28T15:20:31.528Z,22.73
2018-04-28T15:23:00.056Z,22.48
2018-04-28T15:25:28.349Z,22.33
2018-04-28T15:27:56.724Z,22.12
2018-04-28T15:30:25.079Z,21.63
2018-04-28T15:32:53.564Z,21.38
2018-04-28T15:35:22.790Z,21.50
2018-04-28T15:37:51.160Z,21.66
2018-04-28T15:40:19.584Z,22.17
2018-04-28T15:42:48.898Z,22.32
2018-04-28T15:45:17.797Z,21.72
2018-04-28T15:47:46.180Z,22.05
2018-04-28T15:50:14.500Z,22.38
2018-04-28T15:52:42.875Z,22.11
2018-04-28T15:55:11.540Z,21.91
2018-04-28T15:57:40.222Z,21.47
2018-04-28T16:00:08.616Z,21.45
2018-04-28T16:02:36.968Z,21.72
2018-04-28T16:05:05.310Z,21.66
2018-04-28T16:07:33.787Z,21.97
2018-04-28T16:10:02.446Z,21.93
2018-04-28T16:12:30.882Z,21.71
2018-04-28T16:14:59.339Z,21.69
2018-04-28T16:17:27.681Z,22.05
2018-04-28T16:19:56.019Z,22.42
2018-04-28T16:22:27.284Z,22.12
2018-04-28T16:24:55.613Z,21.76
2018-04-28T16:27:24.030Z,21.82
2018-04-28T16:29:52.538Z,21.67
2018-04-28T16:32:20.842Z,21.70
2018-04-28T16:34:49.194Z,21.66
2018-04-28T16:37:17.603Z,21.72
2018-04-28T16:39:45.983Z,21.89
2018-04-28T16:42:14.357Z,21.81
2018-04-28T16:44:43.100Z,21.54
2018-04-28T16:47:11.479Z,21.63
2018-04-28T16:49:40.089Z,21.67
2018-04-28T16:52:08.641Z,21.27
2018-04-28T16:54:36.968Z,21.19
2018-04-28T16:57:05.385Z,21.32
2018-04-28T16:59:33.750Z,21.41
2018-04-28T17:02:02.061Z,21.50
2018-04-28T17:04:30.405Z,21.44
2018-04-28T17:06:58.796Z,21.62
2018-04-28T17:09:27.160Z,20.96
2018-04-28T17:11:56.734Z,21.00
2018-04-28T17:14:25.221Z,20.97
2018-04-28T17:16:53.632Z,21.30
2018-04-28T17:19:22.002Z,21.45
2018-04-28T17:21:50.491Z,20.94
2018-04-28T17:24:18.898Z,21.02
2018-04-28T17:26:48.084Z,21.25
2018-04-28T17:29:16.458Z,21.36
2018-04-28T17:31:45.632Z,21.43
2018-04-28T17:34:14.837Z,21.44
2018-04-28T17:36:46.601Z,21.24
2018-04-28T17:39:16.540Z,20.96
2018-04-28T17:41:47.059Z,21.05
2018-04-28T17:44:16.308Z,21.14
2018-04-28T17:46:44.627Z,21.01
2018-04-28T17:49:13.923Z,21.02
2018-04-28T17:51:42.163Z,20.76
2018-04-28T17:54:10.487Z,20.99
2018-04-28T17:56:39.740Z,20.78
2018-04-28T17:59:08.072Z,20.87
2018-04-28T18:01:37.188Z,20.54
2018-04-28T18:04:05.550Z,20.49
2018-04-28T18:06:33.882Z,20.21
2018-04-28T18:09:02.289Z,20.20
2018-04-28T18:11:30.650Z,20.29
2018-04-28T18:13:59.260Z,20.26
2018-04-28T18:16:28.412Z,20.26
2018-04-28T18:18:56.866Z,20.15
2018-04-28T18:21:25.215Z,20.29
2018-04-28T18:23:54.674Z,20.22
2018-04-28T18:26:23.967Z,20.31
2018-04-28T18:28:52.450Z,20.33
2018-04-28T18:31:21.700Z,20.16
2018-04-28T18:33:50.072Z,20.36
2018-04-28T18:36:19.570Z,20.35
2018-04-28T18:38:48.507Z,20.31
2018-04-28T18:41:17.427Z,20.31
2018-04-28T18:43:47.060Z,20.27
2018-04-28T18:46:16.450Z,20.22
2018-04-28T18:48:45.666Z,20.32
2018-04-28T18:51:19.037Z,20.32
2018-04-28T18:53:49.377Z,20.17
2018-04-28T18:56:19.691Z,20.10
2018-04-28T18:58:49.182Z,20.06
2018-04-28T19:01:19.297Z,20.05
2018-04-28T19:03:49.055Z,20.02
2018-04-28T19:06:20.194Z,19.90
2018-04-28T19:08:52.047Z,19.97
2018-04-28T19:11:20.923Z,19.84
2018-04-28T19:13:51.051Z,19.92
2018-04-28T19:16:20.285Z,19.80
2018-04-28T19:18:51.094Z,19.57
2018-04-28T19:21:20.485Z,19.44
2018-04-28T19:23:49.991Z,19.40
2018-04-28T19:26:19.815Z,19.36
2018-04-28T19:28:49.461Z,19.35
2018-04-28T19:31:19.026Z,19.28
2018-04-28T19:33:49.556Z,19.22
2018-04-28T19:36:18.748Z,19.18
2018-04-28T19:38:47.746Z,19.02
2018-04-28T19:41:17.955Z,18.90
2018-04-28T19:43:47.346Z,18.88
2018-04-28T19:46:16.476Z,18.93
2018-04-28T19:48:46.508Z,18.83
2018-04-28T19:51:16.274Z,18.70
2018-04-28T19:53:45.783Z,18.74
2018-04-28T19:56:15.188Z,18.74
2018-04-28T19:58:45.689Z,18.54
2018-04-28T20:01:19.290Z,18.56
2018-04-28T20:03:48.293Z,18.63
2018-04-28T20:06:17.209Z,18.64
2018-04-28T20:08:46.668Z,18.45
2018-04-28T20:11:15.811Z,18.38
2018-04-28T20:13:44.608Z,18.33
2018-04-28T20:16:15.370Z,18.37
2018-04-28T20:18:45.381Z,18.23
2018-04-28T20:21:14.315Z,18.36
2018-04-28T20:26:56.630Z,18.07
2018-04-28T20:29:26.815Z,18.02
2018-04-28T20:31:56.354Z,18.05
2018-04-28T20:34:25.133Z,18.11
2018-04-28T20:36:54.899Z,18.11
2018-04-28T20:39:24.525Z,17.97
2018-04-28T20:41:53.354Z,17.90
2018-04-28T20:44:23.403Z,17.84
2018-04-28T20:46:52.678Z,17.89
2018-04-28T20:49:22.409Z,17.89
2018-04-28T20:51:52.400Z,17.84
2018-04-28T20:54:21.254Z,17.79
2018-04-28T20:56:50.884Z,17.87
2018-04-28T20:59:20.958Z,17.89
2018-04-28T21:01:51.012Z,17.96
2018-04-28T21:04:22.125Z,17.95
2018-04-28T21:06:51.063Z,18.13
2018-04-28T21:09:20.651Z,18.24
2018-04-28T21:11:51.706Z,18.31
2018-04-28T21:14:20.894Z,18.29
2018-04-28T21:16:50.391Z,18.36
2018-04-28T21:19:19.187Z,18.25
2018-04-28T21:21:48.028Z,18.45
2018-04-28T21:24:17.012Z,18.45
2018-04-28T21:26:46.741Z,18.49
2018-04-28T21:29:18.000Z,18.53
2018-04-28T21:31:47.639Z,18.44
2018-04-28T21:34:17.817Z,18.28
2018-04-28T21:36:46.894Z,18.29
2018-04-28T21:39:16.484Z,18.44
2018-04-28T21:41:45.655Z,18.46
2018-04-28T21:44:14.568Z,18.42
2018-04-28T21:46:45.480Z,18.29
2018-04-28T21:49:14.370Z,18.26
2018-04-28T21:51:43.943Z,18.34
2018-04-28T21:54:13.796Z,18.28
2018-04-28T21:56:43.670Z,18.45
2018-04-28T21:59:12.308Z,18.38
2018-04-28T22:01:41.084Z,18.28
2018-04-28T22:04:11.653Z,18.32
2018-04-28T22:06:40.483Z,18.28
2018-04-28T22:09:10.215Z,18.31
2018-04-28T22:11:40.362Z,18.34
2018-04-28T22:14:09.428Z,18.39
2018-04-28T22:16:39.533Z,18.36
2018-04-28T22:19:09.448Z,18.38
2018-04-28T22:21:38.204Z,18.43
2018-04-28T22:24:06.783Z,18.47
2018-04-28T22:26:35.953Z,18.35
2018-04-28T22:29:05.229Z,18.26
2018-04-28T22:31:35.791Z,18.18
2018-04-28T22:34:05.714Z,18.32
2018-04-28T22:36:35.576Z,18.15
2018-04-28T22:39:07.335Z,18.21
2018-04-28T22:41:36.798Z,18.33
2018-04-28T22:44:06.858Z,18.34
2018-04-28T22:46:36.164Z,18.44
2018-04-28T22:49:05.067Z,18.24
2018-04-28T22:51:34.011Z,18.35
2018-04-28T22:54:03.387Z,18.31
2018-04-28T22:56:32.117Z,18.38
2018-04-28T22:59:01.276Z,18.34
2018-04-28T23:01:29.954Z,18.32
2018-04-28T23:03:58.811Z,18.34
2018-04-28T23:06:29.466Z,18.31
2018-04-28T23:08:59.144Z,18.43
2018-04-28T23:11:28.232Z,18.49
2018-04-28T23:13:58.143Z,18.49
2018-04-28T23:16:26.926Z,18.34
2018-04-28T23:18:55.926Z,18.27
2018-04-28T23:21:27.957Z,18.37
2018-04-28T23:23:57.407Z,18.30
2018-04-28T23:26:27.534Z,18.39
2018-04-28T23:28:57.004Z,18.28
2018-04-28T23:31:26.955Z,18.02
2018-04-28T23:33:57.067Z,18.07
2018-04-28T23:36:26.487Z,17.99
2018-04-28T23:38:56.238Z,17.95
2018-04-28T23:41:25.324Z,18.01
2018-04-28T23:43:54.565Z,18.13
2018-04-28T23:46:25.027Z,18.10
2018-04-28T23:48:54.041Z,18.09
2018-04-28T23:51:24.389Z,18.06
2018-04-28T23:53:52.992Z,18.09
2018-04-28T23:56:21.642Z,18.07
2018-04-28T23:58:52.833Z,17.90
